createdAt,value
2023-09-02T00:02:18.185Z,12.40
2023-09-02T00:04:48.233Z,12.10
2023-09-02T00:07:19.022Z,12.00
2023-09-02T00:09:51.797Z,11.90
2023-09-02T00:12:21.900Z,11.80
2023-09-02T00:14:52.832Z,11.70
2023-09-02T00:17:23.079Z,11.60
2023-09-02T00:19:53.541Z,11.40
2023-09-02T00:22:23.608Z,11.30
2023-09-02T00:24:56.857Z,11.20
2023-09-02T00:27:26.919Z,11.20
2023-09-02T00:29:57.284Z,11.00
2023-09-02T00:32:28.247Z,10.90
2023-09-02T00:34:58.843Z,10.90
2023-09-02T00:37:28.854Z,11.00
2023-09-02T00:40:01.592Z,11.00
2023-09-02T00:42:33.864Z,11.20
2023-09-02T00:45:04.191Z,11.10
2023-09-02T00:47:34.962Z,11.30
2023-09-02T00:50:05.899Z,11.40
2023-09-02T00:52:37.643Z,11.50
2023-09-02T00:55:10.980Z,11.60
2023-09-02T00:57:41.915Z,11.60
2023-09-02T01:00:14.657Z,11.70
2023-09-02T01:02:46.838Z,11.80
2023-09-02T01:05:17.865Z,11.80
2023-09-02T01:07:49.267Z,11.90
2023-09-02T01:10:21.981Z,12.00
2023-09-02T01:12:52.616Z,12.00
2023-09-02T01:15:23.063Z,12.10
2023-09-02T01:17:53.507Z,12.20
2023-09-02T01:20:24.027Z,12.20
2023-09-02T01:23:08.576Z,12.30
2023-09-02T01:26:05.350Z,12.30
2023-09-02T01:28:43.437Z,12.30
2023-09-02T01:31:17.106Z,12.40
2023-09-02T01:33:48.436Z,12.50
2023-09-02T01:36:19.302Z,12.50
2023-09-02T01:38:51.901Z,12.50
2023-09-02T01:41:23.658Z,12.60
2023-09-02T01:43:58.284Z,12.60
2023-09-02T01:46:28.636Z,12.70
2023-09-02T01:48:59.529Z,12.70
2023-09-02T01:51:30.185Z,12.80
2023-09-02T01:54:01.133Z,12.90
2023-09-02T01:56:32.108Z,12.70
2023-09-02T01:59:04.941Z,12.80
2023-09-02T02:01:36.863Z,12.80
2023-09-02T02:04:15.225Z,13.00
2023-09-02T02:06:47.725Z,12.90
2023-09-02T02:09:23.664Z,12.90
2023-09-02T02:11:56.702Z,12.90
2023-09-02T02:14:30.043Z,12.80
2023-09-02T02:17:01.386Z,12.90
2023-09-02T02:19:31.904Z,12.80
2023-09-02T02:22:02.596Z,12.90
2023-09-02T02:24:32.956Z,12.90
2023-09-02T02:27:03.597Z,12.90
2023-09-02T02:29:36.471Z,13.00
2023-09-02T02:32:06.917Z,13.00
2023-09-02T02:34:37.099Z,13.00
2023-09-02T02:37:08.135Z,13.10
2023-09-02T02:39:38.240Z,13.20
2023-09-02T02:42:09.153Z,13.20
2023-09-02T02:44:42.535Z,13.20
2023-09-02T02:47:12.581Z,13.20
2023-09-02T02:49:42.854Z,13.10
2023-09-02T02:52:13.051Z,13.10
2023-09-02T02:54:43.681Z,13.10
2023-09-02T02:57:14.157Z,13.20
2023-09-02T02:59:47.335Z,13.30
2023-09-02T03:02:18.235Z,13.30
2023-09-02T03:04:49.731Z,13.40
2023-09-02T03:07:20.772Z,13.40
2023-09-02T03:09:51.171Z,13.40
2023-09-02T03:12:21.475Z,13.30
2023-09-02T03:14:54.438Z,13.30
2023-09-02T03:17:25.213Z,13.40
2023-09-02T03:19:56.470Z,13.30
2023-09-02T03:22:28.200Z,13.30
2023-09-02T03:24:58.437Z,13.20
2023-09-02T03:27:31.293Z,13.30
2023-09-02T03:30:04.663Z,13.30
2023-09-02T03:32:35.142Z,13.20
2023-09-02T03:35:05.739Z,13.20
2023-09-02T03:37:35.894Z,13.20
2023-09-02T03:40:07.443Z,13.20
2023-09-02T03:42:37.969Z,13.20
2023-09-02T03:45:11.861Z,13.20
2023-09-02T03:47:42.105Z,13.20
2023-09-02T03:50:14.820Z,13.20
2023-09-02T03:52:45.221Z,13.20
2023-09-02T03:55:15.885Z,13.20
2023-09-02T03:57:45.992Z,13.20
2023-09-02T04:00:20.146Z,13.10
2023-09-02T04:02:51.870Z,13.00
2023-09-02T04:05:22.496Z,13.00
2023-09-02T04:07:52.571Z,13.00
2023-09-02T04:10:23.573Z,13.00
2023-09-02T04:12:54.421Z,13.00
2023-09-02T04:15:27.095Z,13.00
2023-09-02T04:18:00.237Z,13.10
2023-09-02T04:20:30.427Z,13.10
2023-09-02T04:23:01.009Z,13.10
2023-09-02T04:25:32.671Z,13.10
2023-09-02T04:28:02.865Z,13.10
2023-09-02T04:30:35.979Z,13.20
2023-09-02T04:33:07.305Z,13.10
2023-09-02T04:35:41.408Z,13.10
2023-09-02T04:38:12.532Z,13.20
2023-09-02T04:40:47.478Z,13.10
2023-09-02T04:43:19.341Z,13.10
2023-09-02T04:45:54.574Z,13.10
2023-09-02T04:48:24.728Z,13.10
2023-09-02T04:50:58.048Z,13.20
2023-09-02T04:53:30.425Z,13.20
2023-09-02T04:56:02.228Z,13.20
2023-09-02T04:58:34.860Z,13.20
2023-09-02T05:01:17.277Z,13.20
2023-09-02T05:03:51.948Z,13.30
2023-09-02T05:06:22.248Z,13.20
2023-09-02T05:08:55.871Z,13.20
2023-09-02T05:11:30.545Z,13.20
2023-09-02T05:14:02.503Z,13.20
2023-09-02T05:16:36.915Z,13.20
2023-09-02T05:19:07.287Z,13.30
2023-09-02T05:21:37.588Z,13.30
2023-09-02T05:24:08.577Z,13.40
2023-09-02T05:26:39.377Z,13.40
2023-09-02T05:29:10.122Z,13.50
2023-09-02T05:31:43.518Z,13.50
2023-09-02T05:34:13.607Z,13.60
2023-09-02T05:36:44.032Z,13.70
2023-09-02T05:39:14.647Z,13.80
2023-09-02T05:41:44.898Z,13.80
2023-09-02T05:44:15.011Z,13.70
2023-09-02T05:46:48.024Z,13.80
2023-09-02T05:49:18.120Z,13.80
2023-09-02T05:51:48.656Z,13.80
2023-09-02T05:54:18.695Z,13.70
2023-09-02T05:56:51.647Z,13.70
2023-09-02T05:59:22.235Z,13.70
2023-09-02T06:01:55.261Z,13.70
2023-09-02T06:04:25.818Z,13.70
2023-09-02T06:06:56.087Z,13.70
2023-09-02T06:09:28.663Z,13.70
2023-09-02T06:11:58.702Z,13.80
2023-09-02T06:14:29.518Z,13.80
2023-09-02T06:17:02.189Z,13.90
2023-09-02T06:19:32.515Z,14.00
2023-09-02T06:22:02.591Z,13.90
2023-09-02T06:24:32.878Z,13.90
2023-09-02T06:27:05.155Z,14.00
2023-09-02T06:29:35.370Z,14.00
2023-09-02T06:32:08.976Z,14.00
2023-09-02T06:34:39.102Z,14.00
2023-09-02T06:37:09.218Z,14.10
2023-09-02T06:39:39.302Z,14.20
2023-09-02T06:42:09.460Z,14.20
2023-09-02T06:44:39.576Z,14.20
2023-09-02T06:47:12.493Z,14.30
2023-09-02T06:49:42.560Z,14.30
2023-09-02T06:52:13.208Z,14.30
2023-09-02T06:54:43.325Z,14.50
2023-09-02T06:57:14.125Z,14.60
2023-09-02T06:59:44.337Z,14.60
2023-09-02T07:02:17.419Z,14.70
2023-09-02T07:04:51.459Z,14.80
2023-09-02T07:07:21.608Z,14.80
2023-09-02T07:09:51.678Z,14.80
2023-09-02T07:12:21.724Z,14.90
2023-09-02T07:14:52.197Z,14.90
2023-09-02T07:17:27.456Z,14.90
2023-09-02T07:19:58.039Z,14.90
2023-09-02T07:22:28.453Z,14.90
2023-09-02T07:24:58.735Z,15.00
2023-09-02T07:27:28.793Z,14.90
2023-09-02T07:30:01.752Z,14.90
2023-09-02T07:32:34.434Z,15.10
2023-09-02T07:35:04.559Z,15.30
2023-09-02T07:37:34.957Z,15.30
2023-09-02T07:40:05.020Z,15.40
2023-09-02T07:42:35.426Z,15.50
2023-09-02T07:45:05.529Z,15.50
2023-09-02T07:47:38.245Z,15.70
2023-09-02T07:50:09.990Z,15.90
2023-09-02T07:52:40.465Z,16.00
2023-09-02T07:55:11.747Z,16.40
2023-09-02T07:57:42.319Z,16.60
2023-09-02T08:00:13.206Z,16.40
2023-09-02T08:02:46.117Z,16.70
2023-09-02T08:05:16.257Z,16.80
2023-09-02T08:07:46.704Z,17.00
2023-09-02T08:10:17.058Z,17.10
2023-09-02T08:12:47.326Z,17.10
2023-09-02T08:15:18.509Z,17.30
2023-09-02T08:17:51.265Z,17.50
2023-09-02T08:20:22.351Z,17.50
2023-09-02T08:22:52.510Z,17.50
2023-09-02T08:25:22.709Z,17.60
2023-09-02T08:27:56.264Z,17.30
2023-09-02T08:30:26.840Z,17.40
2023-09-02T08:32:59.638Z,17.50
2023-09-02T08:35:30.115Z,17.40
2023-09-02T08:38:00.517Z,17.40
2023-09-02T08:40:30.806Z,17.50
2023-09-02T08:43:03.304Z,17.70
2023-09-02T08:45:35.675Z,18.00
2023-09-02T08:48:12.579Z,18.30
2023-09-02T08:50:42.876Z,18.40
2023-09-02T08:53:13.023Z,18.10
2023-09-02T08:55:45.630Z,18.00
2023-09-02T08:58:17.302Z,17.60
2023-09-02T09:00:48.411Z,17.10
2023-09-02T09:03:24.928Z,16.80
2023-09-02T09:05:56.114Z,16.70
2023-09-02T09:08:29.497Z,16.90
2023-09-02T09:10:59.931Z,16.90
2023-09-02T09:13:30.617Z,17.10
2023-09-02T09:16:02.367Z,17.10
2023-09-02T09:18:35.317Z,17.30
2023-09-02T09:21:05.799Z,17.40
2023-09-02T09:23:38.068Z,17.60
2023-09-02T09:26:09.508Z,17.90
2023-09-02T09:28:54.525Z,18.10
2023-09-02T09:31:25.359Z,18.40
2023-09-02T09:34:00.219Z,18.30
2023-09-02T09:36:31.560Z,18.40
2023-09-02T09:39:03.390Z,18.40
2023-09-02T09:41:34.004Z,18.20
2023-09-02T09:44:08.571Z,18.20
2023-09-02T09:46:40.036Z,18.00
2023-09-02T09:49:22.709Z,18.10
2023-09-02T09:51:54.584Z,18.20
2023-09-02T09:54:39.171Z,18.20
2023-09-02T09:57:10.696Z,18.10
2023-09-02T09:59:41.371Z,17.80
2023-09-02T10:02:12.344Z,17.70
2023-09-02T10:04:54.167Z,17.20
2023-09-02T10:07:27.884Z,16.80
2023-09-02T10:09:59.256Z,16.80
2023-09-02T10:12:38.315Z,16.90
2023-09-02T10:15:11.317Z,16.80
2023-09-02T10:17:45.019Z,16.60
2023-09-02T10:20:19.614Z,16.40
2023-09-02T10:22:54.099Z,16.30
2023-09-02T10:25:29.214Z,16.30
2023-09-02T11:06:24.962Z,17.50
2023-09-02T11:08:56.080Z,17.70
2023-09-02T11:11:26.174Z,17.90
2023-09-02T11:14:24.090Z,17.90
2023-09-02T11:17:24.554Z,18.20
2023-09-02T11:20:02.327Z,18.50
2023-09-02T11:22:55.085Z,18.60
2023-09-02T11:25:38.793Z,18.90
2023-09-02T11:28:10.251Z,19.30
2023-09-02T11:30:42.515Z,19.50
2023-09-02T11:33:13.654Z,19.40
2023-09-02T11:35:44.032Z,19.50
2023-09-02T11:38:23.686Z,19.60
2023-09-02T11:40:53.757Z,19.60
2023-09-02T11:43:24.251Z,19.80
2023-09-02T11:45:56.380Z,19.60
2023-09-02T11:48:29.253Z,19.70
2023-09-02T11:51:01.125Z,19.70
2023-09-02T11:53:35.414Z,19.60
2023-09-02T11:56:05.541Z,19.60
2023-09-02T11:58:35.786Z,19.50
2023-09-02T12:01:06.205Z,19.50
2023-09-02T12:03:36.637Z,19.40
2023-09-02T12:06:07.668Z,19.40
2023-09-02T12:08:41.330Z,19.40
2023-09-02T12:11:11.671Z,19.40
2023-09-02T12:13:42.209Z,19.50
2023-09-02T12:16:22.696Z,19.60
2023-09-02T12:18:53.652Z,19.60
2023-09-02T12:21:23.852Z,20.10
2023-09-02T12:23:56.929Z,20.40
2023-09-02T12:26:27.086Z,20.40
2023-09-02T12:29:06.376Z,20.30
2023-09-02T12:31:45.358Z,20.10
2023-09-02T12:34:15.440Z,20.10
2023-09-02T12:36:45.505Z,19.70
2023-09-02T12:39:29.050Z,19.60
2023-09-02T12:42:02.196Z,19.80
2023-09-02T12:44:32.731Z,20.10
2023-09-02T12:47:03.660Z,20.20
2023-09-02T12:49:35.538Z,20.60
2023-09-02T12:52:05.629Z,21.00
2023-09-02T12:54:38.306Z,21.00
2023-09-02T12:57:08.811Z,21.60
2023-09-02T12:59:38.918Z,21.40
2023-09-02T13:02:09.181Z,21.30
2023-09-02T13:04:39.824Z,21.50
2023-09-02T13:07:10.368Z,21.30
2023-09-02T13:09:43.556Z,20.70
2023-09-02T13:12:14.269Z,20.30
2023-09-02T13:17:16.579Z,20.10
2023-09-02T13:19:47.235Z,20.00
2023-09-02T13:22:18.118Z,19.90
2023-09-02T13:24:51.360Z,19.80
2023-09-02T13:27:22.786Z,19.70
2023-09-02T13:29:53.036Z,19.80
2023-09-02T13:32:27.341Z,19.70
2023-09-02T13:34:58.583Z,19.80
2023-09-02T13:37:31.175Z,20.00
2023-09-02T13:40:04.846Z,20.40
2023-09-02T13:42:36.329Z,20.80
2023-09-02T13:45:18.993Z,20.80
2023-09-02T13:47:51.113Z,20.60
2023-09-02T13:50:22.652Z,20.80
2023-09-02T13:52:56.323Z,21.10
2023-09-02T13:55:39.589Z,21.30
2023-09-02T13:58:10.077Z,21.20
2023-09-02T14:00:42.727Z,21.00
2023-09-02T14:03:21.059Z,20.20
2023-09-02T14:05:53.284Z,20.10
2023-09-02T14:08:24.748Z,20.30
2023-09-02T14:10:57.458Z,20.50
2023-09-02T14:13:27.795Z,20.20
2023-09-02T14:15:57.894Z,20.10
2023-09-02T14:18:28.349Z,20.10
2023-09-02T14:20:58.449Z,19.80
2023-09-02T14:23:28.977Z,19.60
2023-09-02T14:26:01.745Z,19.40
2023-09-02T14:28:32.460Z,19.20
2023-09-02T14:31:02.695Z,19.20
2023-09-02T14:33:32.805Z,19.30
2023-09-02T14:36:03.954Z,19.30
2023-09-02T14:38:34.045Z,19.10
2023-09-02T14:41:07.098Z,19.30
2023-09-02T14:43:37.204Z,19.40
2023-09-02T14:46:10.574Z,19.60
2023-09-02T14:48:40.864Z,19.50
2023-09-02T14:51:11.344Z,19.30
2023-09-02T14:53:43.719Z,19.00
2023-09-02T14:56:18.101Z,19.00
2023-09-02T14:58:48.844Z,19.30
2023-09-02T15:01:19.798Z,19.60
2023-09-02T15:03:50.116Z,19.70
2023-09-02T15:06:20.707Z,20.10
2023-09-02T15:08:50.800Z,20.20
2023-09-02T15:11:23.516Z,19.90
2023-09-02T15:13:56.637Z,20.10
2023-09-02T15:16:27.587Z,20.30
2023-09-02T15:18:58.410Z,20.50
2023-09-02T15:21:31.352Z,20.70
2023-09-02T15:24:05.761Z,21.00
2023-09-02T15:26:39.582Z,21.30
2023-09-02T15:29:15.018Z,21.30
2023-09-02T15:31:52.058Z,21.40
2023-09-02T15:34:23.694Z,21.20
2023-09-02T15:36:56.741Z,21.40
2023-09-02T15:39:29.248Z,21.40
2023-09-02T15:42:04.651Z,21.60
2023-09-02T15:44:35.370Z,21.40
2023-09-02T15:47:13.556Z,20.80
2023-09-02T15:49:43.653Z,20.80
2023-09-02T15:52:13.753Z,20.80
2023-09-02T15:54:43.811Z,20.90
2023-09-02T15:57:17.819Z,21.10
2023-09-02T15:59:48.055Z,20.70
2023-09-02T16:02:18.140Z,20.50
2023-09-02T16:04:51.529Z,20.40
2023-09-02T16:07:21.612Z,20.30
2023-09-02T16:09:52.765Z,20.40
2023-09-02T16:12:25.434Z,20.30
2023-09-02T16:14:55.927Z,20.20
2023-09-02T16:17:27.230Z,20.10
2023-09-02T16:19:57.489Z,19.90
2023-09-02T16:22:28.762Z,19.70
2023-09-02T16:24:59.010Z,19.50
2023-09-02T16:27:31.625Z,19.40
2023-09-02T16:30:02.837Z,19.30
2023-09-02T16:32:33.872Z,19.70
2023-09-02T16:35:06.513Z,20.30
2023-09-02T16:37:43.977Z,20.60
2023-09-02T16:40:15.871Z,21.40
2023-09-02T16:42:50.235Z,21.80
2023-09-02T16:45:20.305Z,21.70
2023-09-02T16:47:52.434Z,22.00
2023-09-02T16:50:23.776Z,22.00
2023-09-02T16:52:55.595Z,22.40
2023-09-02T16:55:29.116Z,22.60
2023-09-02T16:58:02.152Z,22.90
2023-09-02T17:00:36.044Z,23.20
2023-09-02T17:03:08.715Z,23.10
2023-09-02T17:05:40.091Z,22.30
2023-09-02T17:08:11.160Z,20.80
2023-09-02T17:10:41.642Z,19.90
2023-09-02T17:13:14.296Z,19.20
2023-09-02T17:15:44.675Z,18.60
2023-09-02T17:18:17.203Z,18.20
2023-09-02T17:20:47.902Z,18.00
2023-09-02T17:23:21.117Z,17.70
2023-09-02T17:25:52.629Z,17.50
2023-09-02T17:28:26.775Z,17.50
2023-09-02T17:31:00.218Z,17.50
2023-09-02T17:33:31.245Z,17.40
2023-09-02T17:36:01.330Z,17.40
2023-09-02T17:38:32.131Z,17.30
2023-09-02T17:41:02.257Z,17.20
2023-09-02T17:43:35.184Z,16.90
2023-09-02T17:46:05.251Z,16.80
2023-09-02T17:48:35.433Z,16.70
2023-09-02T17:51:05.539Z,16.60
2023-09-02T17:53:35.628Z,16.40
2023-09-02T17:56:05.710Z,16.30
2023-09-02T17:58:38.528Z,16.20
2023-09-02T18:01:08.675Z,16.10
2023-09-02T18:03:39.642Z,16.00
2023-09-02T18:06:09.930Z,16.00
2023-09-02T18:08:57.395Z,16.00
2023-09-02T18:11:29.507Z,16.00
2023-09-02T18:14:02.292Z,15.90
2023-09-02T18:16:32.764Z,15.90
2023-09-02T18:19:02.905Z,15.70
2023-09-02T18:21:33.010Z,15.70
2023-09-02T18:24:06.067Z,15.70
2023-09-02T18:26:36.165Z,15.60
2023-09-02T18:29:09.059Z,15.70
2023-09-02T18:31:39.637Z,15.70
2023-09-02T18:34:10.161Z,15.50
2023-09-02T18:36:40.224Z,15.40
2023-09-02T18:39:10.347Z,15.40
2023-09-02T18:41:41.180Z,15.30
2023-09-02T18:44:14.150Z,15.20
2023-09-02T18:46:44.231Z,15.10
2023-09-02T18:49:15.151Z,15.00
2023-09-02T18:51:45.307Z,15.00
2023-09-02T18:54:15.609Z,14.80
2023-09-02T18:56:45.666Z,14.70
2023-09-02T18:59:18.733Z,14.70
2023-09-02T19:01:48.804Z,14.80
2023-09-02T19:04:19.332Z,14.60
2023-09-02T19:06:49.619Z,14.60
2023-09-02T19:09:19.701Z,14.60
2023-09-02T19:11:49.969Z,14.50
2023-09-02T19:14:22.964Z,14.40
2023-09-02T19:16:55.927Z,14.30
2023-09-02T19:19:26.094Z,14.20
2023-09-02T19:21:56.374Z,14.20
2023-09-02T19:24:26.521Z,14.20
2023-09-02T19:26:56.819Z,14.30
2023-09-02T19:29:29.510Z,14.30
2023-09-02T19:31:59.661Z,14.30
2023-09-02T19:34:33.560Z,14.40
2023-09-02T19:37:05.352Z,14.40
2023-09-02T19:39:37.163Z,14.50
2023-09-02T19:42:07.705Z,14.50
2023-09-02T19:44:40.419Z,14.40
2023-09-02T19:47:10.505Z,14.40
2023-09-02T19:49:42.332Z,14.40
2023-09-02T19:52:12.431Z,14.40
2023-09-02T19:54:42.547Z,14.40
2023-09-02T19:57:12.587Z,14.30
2023-09-02T19:59:45.502Z,14.10
2023-09-02T20:02:16.849Z,13.80
2023-09-02T20:04:47.445Z,13.90
2023-09-02T20:07:17.944Z,13.80
2023-09-02T20:09:48.020Z,13.60
2023-09-02T20:12:18.418Z,13.50
2023-09-02T20:14:51.293Z,13.50
2023-09-02T20:17:22.101Z,13.60
2023-09-02T20:19:52.161Z,13.70
2023-09-02T20:22:22.816Z,13.70
2023-09-02T20:24:55.267Z,13.60
2023-09-02T20:27:27.951Z,13.50
2023-09-02T20:30:00.801Z,13.50
2023-09-02T20:32:31.063Z,13.60
2023-09-02T20:35:01.429Z,13.70
2023-09-02T20:37:31.758Z,13.70
2023-09-02T20:40:02.128Z,13.60
2023-09-02T20:42:33.010Z,13.50
2023-09-02T20:45:07.392Z,13.50
2023-09-02T20:47:37.532Z,13.50
2023-09-02T20:50:09.366Z,13.30
2023-09-02T20:52:39.373Z,13.20
2023-09-02T20:55:10.259Z,13.20
2023-09-02T20:57:40.991Z,13.00
2023-09-02T21:00:16.241Z,12.90
2023-09-02T21:02:46.431Z,12.90
2023-09-02T21:05:17.331Z,13.00
2023-09-02T21:07:47.657Z,13.10
2023-09-02T21:10:18.254Z,13.10
2023-09-02T21:12:48.517Z,13.10
2023-09-02T21:15:22.555Z,13.30
2023-09-02T21:17:52.816Z,13.40
2023-09-02T21:20:23.401Z,13.50
2023-09-02T21:22:55.148Z,13.60
2023-09-02T21:25:25.720Z,13.60
2023-09-02T21:27:56.550Z,13.60
2023-09-02T21:30:29.578Z,13.60
2023-09-02T21:32:59.651Z,13.60
2023-09-02T21:35:29.656Z,13.50
2023-09-02T21:38:00.157Z,13.40
2023-09-02T21:40:30.343Z,13.40
2023-09-02T21:43:00.843Z,13.30
2023-09-02T21:45:35.322Z,13.10
2023-09-02T21:48:05.422Z,13.10
2023-09-02T21:50:35.664Z,13.10
2023-09-02T21:53:05.680Z,13.10
2023-09-02T21:55:35.745Z,13.10
2023-09-02T21:58:05.741Z,12.90
2023-09-02T22:00:38.396Z,12.90
2023-09-02T22:03:09.170Z,12.80
2023-09-02T22:05:39.232Z,12.60
2023-09-02T22:08:09.913Z,12.40
2023-09-02T22:10:40.333Z,12.40
2023-09-02T22:13:10.935Z,12.50
2023-09-02T22:15:43.675Z,12.60
2023-09-02T22:18:13.694Z,12.60
2023-09-02T22:20:43.740Z,12.60
2023-09-02T22:23:14.157Z,12.50
2023-09-02T22:25:44.263Z,12.40
2023-09-02T22:28:14.272Z,12.20
2023-09-02T22:30:47.199Z,12.20
2023-09-02T22:33:17.163Z,12.30
2023-09-02T22:35:47.178Z,12.40
2023-09-02T22:38:17.355Z,12.20
2023-09-02T22:40:47.364Z,12.10
2023-09-02T22:43:18.003Z,12.10
2023-09-02T22:45:51.768Z,12.00
2023-09-02T22:48:22.102Z,12.00
2023-09-02T22:50:53.862Z,11.90
2023-09-02T22:53:24.331Z,11.90
2023-09-02T22:55:55.034Z,11.80
2023-09-02T22:58:25.241Z,11.80
2023-09-02T23:00:58.250Z,11.80
2023-09-02T23:03:28.284Z,11.90
2023-09-02T23:06:07.779Z,12.00
2023-09-02T23:08:40.738Z,11.90
2023-09-02T23:11:11.427Z,12.10
2023-09-02T23:13:43.639Z,12.00
2023-09-02T23:16:16.404Z,11.90
2023-09-02T23:18:46.817Z,11.80
2023-09-02T23:21:19.176Z,11.70
2023-09-02T23:23:50.313Z,11.50
2023-09-02T23:26:21.652Z,11.60
2023-09-02T23:28:53.652Z,11.60
2023-09-02T23:31:26.857Z,11.50
2023-09-02T23:33:57.254Z,11.50
2023-09-02T23:36:27.357Z,11.50
2023-09-02T23:38:57.431Z,11.60
2023-09-02T23:41:27.474Z,11.70
2023-09-02T23:43:57.722Z,11.70
2023-09-02T23:46:31.006Z,11.60
2023-09-02T23:49:01.129Z,11.50
2023-09-02T23:51:31.870Z,11.60
2023-09-02T23:54:01.874Z,11.70
2023-09-02T23:56:32.324Z,11.70
2023-09-02T23:59:02.317Z,11.80
